Time;durP1;ratioP1;P1;durP2;ratioP2;P2;SDS_P1;SDS_P2;PMS_P1;PMS_P2;Temp;Humidity;BMP_temperature;BMP_pressure;BME280_temperature;BME280_humidity;BME280_pressure;Samples;Min_cycle;Max_cycle;Signal;HPM_P1;HPM_P2
2022/10/12 00:01:08;;;;;;;27.43;8.10;;;10.40;99.90;;;;;;5065622;28;20173;-60
2022/10/12 00:03:35;;;;;;;22.70;8.10;;;10.50;99.90;;;;;;5061017;28;20261;-60
2022/10/12 00:06:01;;;;;;;35.67;9.80;;;10.30;99.90;;;;;;5058021;28;20181;-60
2022/10/12 00:08:27;;;;;;;54.37;17.27;;;10.30;99.90;;;;;;5070351;28;20190;-60
2022/10/12 00:10:52;;;;;;;36.23;11.80;;;10.30;99.90;;;;;;5073823;28;20184;-60
2022/10/12 00:13:19;;;;;;;42.57;14.00;;;;;;;;;;5072963;28;20209;-59
2022/10/12 00:15:44;;;;;;;53.03;17.50;;;10.30;99.90;;;;;;5066389;28;20228;-60
2022/10/12 00:18:10;;;;;;;45.50;16.30;;;10.30;99.90;;;;;;5070304;28;20647;-60
2022/10/12 00:20:35;;;;;;;48.00;20.30;;;10.30;99.90;;;;;;5074244;28;20215;-60
2022/10/12 00:23:01;;;;;;;46.50;12.47;;;10.20;99.90;;;;;;5073296;28;20173;-60
2022/10/12 00:25:27;;;;;;;56.73;23.13;;;10.10;99.90;;;;;;5073552;28;20246;-60
2022/10/12 00:27:52;;;;;;;43.00;13.73;;;10.20;99.90;;;;;;5072748;28;20184;-61
2022/10/12 00:30:18;;;;;;;32.40;11.47;;;10.20;99.90;;;;;;5072576;28;20192;-60
2022/10/12 00:32:44;;;;;;;25.43;7.93;;;10.50;99.90;;;;;;5073556;28;20176;-60
2022/10/12 00:35:10;;;;;;;25.80;8.00;;;10.10;99.90;;;;;;5072895;28;20243;-60
2022/10/12 00:37:36;;;;;;;28.67;7.60;;;10.20;99.90;;;;;;5071817;28;20181;-60
2022/10/12 00:40:01;;;;;;;19.00;7.23;;;10.40;99.90;;;;;;5072796;28;20271;-61
2022/10/12 00:42:27;;;;;;;26.27;7.37;;;10.30;99.90;;;;;;5064256;28;20678;-61
2022/10/12 00:44:52;;;;;;;25.77;6.97;;;12.00;99.90;;;;;;5054454;28;20170;-61
2022/10/12 00:47:32;;;;;;;17.37;7.00;;;10.40;99.90;;;;;;5073247;28;20542;-61
2022/10/12 00:50:10;;;;;;;23.27;6.03;;;10.40;99.90;;;;;;5071933;28;20179;-60
2022/10/12 00:53:16;;;;;;;24.33;6.87;;;10.40;99.90;;;;;;5071081;28;20242;-61
2022/10/12 00:55:50;;;;;;;24.33;5.57;;;10.40;99.90;;;;;;5030544;28;20731;-61
2022/10/12 00:58:16;;;;;;;23.77;5.67;;;10.50;99.90;;;;;;5007223;28;20190;-60
2022/10/12 01:00:43;;;;;;;27.10;5.43;;;10.60;99.90;;;;;;5047531;28;20196;-61
2022/10/12 01:03:12;;;;;;;17.47;5.03;;;10.60;99.90;;;;;;5072347;28;20166;-61
2022/10/12 01:05:39;;;;;;;19.27;5.13;;;10.60;99.90;;;;;;5069184;28;20176;-61
2022/10/12 01:08:05;;;;;;;18.20;5.10;;;10.70;99.90;;;;;;5072820;28;20693;-61
2022/10/12 01:10:31;;;;;;;21.53;5.10;;;10.70;99.90;;;;;;5072582;28;20176;-61
2022/10/12 01:12:57;;;;;;;19.10;4.73;;;10.70;99.90;;;;;;5071154;28;20313;-60
2022/10/12 01:15:30;;;;;;;19.63;4.43;;;10.70;99.90;;;;;;5072422;28;20291;-60
2022/10/12 01:18:17;;;;;;;24.47;4.30;;;10.70;99.90;;;;;;5072000;28;20180;-60
2022/10/12 01:21:24;;;;;;;20.03;4.40;;;10.70;99.90;;;;;;5071584;28;20225;-61
2022/10/12 01:24:24;;;;;;;27.37;4.60;;;10.70;99.90;;;;;;5044062;28;20213;-60
2022/10/12 01:27:02;;;;;;;18.73;3.83;;;10.70;99.90;;;;;;5058012;28;20639;-63
2022/10/12 01:29:49;;;;;;;20.13;4.27;;;10.70;99.90;;;;;;5072681;28;20184;-62
2022/10/12 01:32:28;;;;;;;16.57;4.40;;;10.70;99.90;;;;;;5072441;28;20198;-63
2022/10/12 01:35:03;;;;;;;16.97;4.07;;;10.70;99.90;;;;;;5053274;28;20216;-62
2022/10/12 01:37:43;;;;;;;20.03;4.60;;;10.70;99.90;;;;;;5072339;28;20646;-62
2022/10/12 01:40:15;;;;;;;23.27;4.13;;;10.60;99.90;;;;;;5072077;28;20249;-60
2022/10/12 01:42:43;;;;;;;25.80;4.83;;;10.50;99.90;;;;;;5064151;28;20497;-60
2022/10/12 01:45:11;;;;;;;14.27;3.97;;;10.40;99.90;;;;;;5063352;28;20222;-60
2022/10/12 01:47:39;;;;;;;22.67;4.03;;;10.40;99.90;;;;;;5062564;28;20275;-60
2022/10/12 01:50:11;;;;;;;18.67;4.70;;;10.30;99.90;;;;;;5072569;28;20192;-60
2022/10/12 01:52:54;;;;;;;22.63;4.70;;;10.20;99.90;;;;;;5072218;28;20271;-60
2022/10/12 01:55:49;;;;;;;16.67;4.07;;;10.10;99.90;;;;;;5072665;28;20181;-60
2022/10/12 01:58:17;;;;;;;18.50;4.33;;;10.10;99.90;;;;;;5066057;28;20241;-60
2022/10/12 02:01:09;;;;;;;20.83;4.17;;;10.00;99.90;;;;;;5071185;28;20211;-60
2022/10/12 02:04:00;;;;;;;27.33;4.87;;;9.90;99.90;;;;;;5055893;28;20251;-61
2022/10/12 02:06:33;;;;;;;15.77;4.30;;;9.80;99.90;;;;;;5042495;28;20644;-61
2022/10/12 02:09:06;;;;;;;15.30;4.90;;;9.80;99.90;;;;;;5070142;28;20179;-61
2022/10/12 02:11:34;;;;;;;18.03;3.97;;;9.80;99.90;;;;;;5071423;28;20654;-61
2022/10/12 02:14:07;;;;;;;18.93;4.80;;;9.70;99.90;;;;;;5071425;28;20298;-61
2022/10/12 02:16:38;;;;;;;33.70;7.73;;;9.70;99.90;;;;;;5070832;28;20239;-61
2022/10/12 02:19:09;;;;;;;22.43;6.77;;;9.50;99.90;;;;;;5070792;28;20168;-61
2022/10/12 02:21:35;;;;;;;30.87;6.40;;;9.60;99.90;;;;;;5071867;28;20646;-61
2022/10/12 02:24:04;;;;;;;28.03;7.13;;;9.70;99.90;;;;;;5071725;28;20214;-61
2022/10/12 02:26:33;;;;;;;31.60;9.03;;;9.70;99.90;;;;;;5066029;28;20169;-61
2022/10/12 02:29:05;;;;;;;26.43;7.73;;;9.60;99.90;;;;;;5066165;28;20184;-60
2022/10/12 02:31:45;;;;;;;26.13;7.83;;;9.60;99.90;;;;;;5070646;28;20184;-60
2022/10/12 02:34:22;;;;;;;33.47;8.30;;;9.20;99.90;;;;;;5056107;28;20281;-62
2022/10/12 02:37:13;;;;;;;27.87;7.77;;;9.60;99.90;;;;;;5061287;28;20172;-61
2022/10/12 02:39:48;;;;;;;26.43;8.33;;;9.60;99.90;;;;;;5068503;28;20192;-61
2022/10/12 02:42:20;;;;;;;33.47;8.73;;;9.70;99.90;;;;;;5055213;28;20714;-61
2022/10/12 02:44:47;;;;;;;29.23;8.27;;;9.70;99.90;;;;;;5071237;28;20181;-61
2022/10/12 02:47:15;;;;;;;28.47;8.83;;;9.70;99.90;;;;;;5070949;28;20215;-60
2022/10/12 02:49:44;;;;;;;31.00;8.13;;;9.70;99.90;;;;;;5070680;28;20180;-60
2022/10/12 02:52:10;;;;;;;26.57;8.50;;;9.70;99.90;;;;;;5070884;28;20191;-60
2022/10/12 02:54:36;;;;;;;30.47;7.80;;;9.80;99.90;;;;;;5070588;28;20212;-62
2022/10/12 02:57:01;;;;;;;24.70;7.67;;;9.80;99.90;;;;;;5066318;28;20758;-63
2022/10/12 02:59:27;;;;;;;27.27;7.27;;;9.90;99.90;;;;;;5061123;28;20181;-63
2022/10/12 03:01:53;;;;;;;27.00;8.00;;;10.00;99.90;;;;;;5060532;28;20258;-63
2022/10/12 03:04:19;;;;;;;22.63;6.87;;;10.00;99.90;;;;;;5070851;28;20184;-63
2022/10/12 03:06:44;;;;;;;24.70;5.63;;;10.10;99.90;;;;;;5070168;28;20176;-63
2022/10/12 03:09:10;;;;;;;27.70;5.73;;;10.20;99.90;;;;;;5070492;28;20181;-63
2022/10/12 03:11:42;;;;;;;29.03;5.87;;;10.20;99.90;;;;;;5069430;28;20578;-63
2022/10/12 03:14:10;;;;;;;23.30;5.00;;;10.10;99.90;;;;;;5054155;28;20208;-62
2022/10/12 03:16:36;;;;;;;26.20;6.03;;;10.10;99.90;;;;;;5070840;28;20270;-63
2022/10/12 03:19:01;;;;;;;18.50;5.83;;;10.30;99.90;;;;;;5051243;28;20181;-62
2022/10/12 03:21:27;;;;;;;26.00;6.20;;;10.20;99.90;;;;;;5068444;28;20180;-62
2022/10/12 03:23:53;;;;;;;21.93;6.40;;;10.40;99.90;;;;;;5068364;28;20173;-61
2022/10/12 03:26:18;;;;;;;26.73;5.93;;;10.30;99.90;;;;;;5070150;28;20720;-61
2022/10/12 03:28:44;;;;;;;26.27;6.47;;;10.40;99.90;;;;;;5053101;28;20184;-61
2022/10/12 03:31:09;;;;;;;25.97;5.80;;;10.40;99.90;;;;;;5054424;28;20588;-59
2022/10/12 03:33:35;;;;;;;20.00;5.33;;;10.50;99.90;;;;;;5060759;28;20215;-62
2022/10/12 03:36:00;;;;;;;22.37;5.10;;;10.50;99.90;;;;;;5070325;28;20172;-62
2022/10/12 03:38:27;;;;;;;22.00;5.80;;;;;;;;;;5069588;28;20238;-62
2022/10/12 03:40:53;;;;;;;16.67;5.03;;;10.50;99.90;;;;;;5070548;28;20664;-61
2022/10/12 03:43:18;;;;;;;17.73;5.30;;;10.50;99.90;;;;;;5059453;28;20284;-60
2022/10/12 03:45:44;;;;;;;27.30;5.80;;;10.50;99.90;;;;;;5060325;28;20192;-60
2022/10/12 03:48:09;;;;;;;19.20;5.70;;;10.50;99.90;;;;;;5070126;28;20279;-60
2022/10/12 03:50:35;;;;;;;23.93;6.20;;;10.50;99.90;;;;;;5070609;28;20176;-60
2022/10/12 03:53:03;;;;;;;19.73;5.40;;;10.50;99.90;;;;;;5069800;28;20287;-61
2022/10/12 03:55:29;;;;;;;24.87;5.23;;;10.60;99.90;;;;;;5070109;28;20199;-61
2022/10/12 03:57:55;;;;;;;22.00;5.60;;;10.50;99.90;;;;;;5069409;28;20183;-61
2022/10/12 04:00:21;;;;;;;19.83;5.37;;;10.50;99.90;;;;;;5058875;28;20558;-61
2022/10/12 04:02:47;;;;;;;22.97;6.00;;;10.50;99.90;;;;;;5066854;28;20177;-61
2022/10/12 04:05:12;;;;;;;18.43;4.80;;;10.20;99.90;;;;;;5069047;28;20666;-61
2022/10/12 04:07:38;;;;;;;25.17;6.10;;;10.40;99.90;;;;;;5069216;28;20206;-61
2022/10/12 04:10:04;;;;;;;22.20;5.63;;;10.40;99.90;;;;;;5070182;28;20172;-61
2022/10/12 04:12:30;;;;;;;26.20;5.67;;;10.50;99.90;;;;;;5068998;28;20191;-61
2022/10/12 04:14:55;;;;;;;23.63;4.70;;;10.50;99.90;;;;;;5069343;28;20212;-61
2022/10/12 04:17:21;;;;;;;15.50;4.63;;;10.50;99.90;;;;;;5063982;28;20496;-61
2022/10/12 04:19:47;;;;;;;16.63;4.80;;;10.50;99.90;;;;;;5069708;28;20305;-61
2022/10/12 04:22:13;;;;;;;17.53;5.23;;;10.50;99.90;;;;;;5069951;28;20284;-61
2022/10/12 04:24:39;;;;;;;21.40;4.93;;;10.60;99.90;;;;;;5069620;28;20730;-61
2022/10/12 04:27:04;;;;;;;14.27;4.13;;;10.50;99.90;;;;;;5069344;28;20290;-61
2022/10/12 04:29:30;;;;;;;16.63;4.57;;;;;;;;;;5069868;28;20173;-61
2022/10/12 04:31:56;;;;;;;15.53;4.20;;;10.50;99.90;;;;;;5065139;28;20180;-61
2022/10/12 04:34:22;;;;;;;12.63;3.93;;;10.90;99.90;;;;;;5053343;28;20216;-61
2022/10/12 04:36:47;;;;;;;18.43;4.67;;;10.60;99.90;;;;;;5055222;28;20659;-61
2022/10/12 04:39:13;;;;;;;18.77;4.30;;;10.60;99.90;;;;;;5065654;28;20654;-61
2022/10/12 04:41:38;;;;;;;19.20;4.20;;;10.50;99.90;;;;;;5069447;28;20176;-61
2022/10/12 04:44:05;;;;;;;27.70;4.87;;;10.50;99.90;;;;;;5070118;28;20208;-61
2022/10/12 04:46:31;;;;;;;16.30;4.37;;;10.50;99.90;;;;;;5069603;28;20204;-61
2022/10/12 04:48:57;;;;;;;24.50;4.83;;;10.50;99.90;;;;;;5069324;28;20181;-61
2022/10/12 04:51:22;;;;;;;14.97;4.20;;;10.40;99.90;;;;;;5070003;28;20685;-62
2022/10/12 04:53:48;;;;;;;17.97;4.47;;;10.40;99.90;;;;;;5068735;28;20717;-62
2022/10/12 04:56:13;;;;;;;21.70;4.77;;;10.50;99.90;;;;;;5072047;28;20207;-62
2022/10/12 04:58:39;;;;;;;17.50;4.13;;;10.50;99.90;;;;;;5071708;28;20688;-60
2022/10/12 05:01:05;;;;;;;23.57;4.53;;;10.50;99.90;;;;;;5072998;28;20242;-60
2022/10/12 05:03:30;;;;;;;19.27;5.10;;;10.50;99.90;;;;;;5068152;28;20541;-61
2022/10/12 05:05:56;;;;;;;20.87;4.60;;;10.80;99.90;;;;;;5073107;28;20183;-61
2022/10/12 05:08:21;;;;;;;13.43;4.60;;;10.50;99.90;;;;;;5072928;28;20302;-61
2022/10/12 05:10:47;;;;;;;15.43;4.80;;;10.60;99.90;;;;;;5073490;28;20651;-61
2022/10/12 05:13:13;;;;;;;22.10;4.97;;;10.50;99.90;;;;;;5065074;28;20665;-61
2022/10/12 05:15:41;;;;;;;26.03;4.80;;;10.50;99.90;;;;;;5072063;28;20249;-61
2022/10/12 05:18:06;;;;;;;24.13;5.10;;;10.50;99.90;;;;;;5073081;28;20180;-61
2022/10/12 05:20:32;;;;;;;20.17;5.30;;;10.50;99.90;;;;;;5073482;28;20192;-61
2022/10/12 05:22:58;;;;;;;18.60;4.30;;;;;;;;;;5072810;28;20647;-62
2022/10/12 05:25:24;;;;;;;18.20;5.13;;;10.50;99.90;;;;;;5072099;28;20209;-61
2022/10/12 05:27:50;;;;;;;21.53;5.20;;;10.60;99.90;;;;;;5072636;28;20250;-61
2022/10/12 05:30:15;;;;;;;21.43;5.30;;;10.70;99.90;;;;;;5072282;28;20176;-62
2022/10/12 05:32:43;;;;;;;20.30;4.97;;;10.70;99.90;;;;;;5072002;28;20186;-62
2022/10/12 05:35:09;;;;;;;18.73;4.03;;;10.70;99.90;;;;;;5071456;28;20224;-62
2022/10/12 05:37:35;;;;;;;21.33;4.37;;;10.80;99.90;;;;;;5071709;28;20188;-62
2022/10/12 05:40:00;;;;;;;20.00;4.53;;;10.80;99.90;;;;;;5071586;28;20176;-62
2022/10/12 05:42:26;;;;;;;18.53;4.80;;;10.90;99.90;;;;;;5054101;28;20169;-62
2022/10/12 05:44:52;;;;;;;25.57;4.77;;;10.90;99.90;;;;;;5070623;28;20188;-61
2022/10/12 05:47:17;;;;;;;17.93;4.10;;;10.90;99.90;;;;;;5071868;28;20176;-61
2022/10/12 05:49:43;;;;;;;13.67;3.90;;;10.90;99.90;;;;;;5069675;28;20180;-62
2022/10/12 05:52:08;;;;;;;18.37;4.17;;;10.90;99.90;;;;;;5069953;28;20672;-61
2022/10/12 05:54:34;;;;;;;22.43;5.00;;;10.90;99.90;;;;;;5053844;28;20217;-61
2022/10/12 05:57:00;;;;;;;17.67;4.37;;;10.90;99.90;;;;;;5071427;28;20639;-61
2022/10/12 05:59:25;;;;;;;21.77;4.30;;;10.90;99.90;;;;;;5066072;28;20196;-61
2022/10/12 06:01:51;;;;;;;20.87;4.10;;;11.00;99.90;;;;;;5062268;28;20651;-61
2022/10/12 06:04:17;;;;;;;19.63;3.90;;;11.00;99.90;;;;;;5065077;28;20233;-61
2022/10/12 06:06:42;;;;;;;17.87;4.27;;;11.10;99.90;;;;;;5068425;28;20255;-61
2022/10/12 06:09:08;;;;;;;23.10;4.33;;;11.00;99.90;;;;;;5069841;28;20185;-61
2022/10/12 06:11:34;;;;;;;17.90;3.77;;;;;;;;;;5071093;28;20179;-61
2022/10/12 06:14:00;;;;;;;21.23;4.60;;;11.00;99.90;;;;;;5071581;28;20204;-61
2022/10/12 06:16:25;;;;;;;19.57;4.90;;;11.00;99.90;;;;;;5070713;28;20714;-61
2022/10/12 06:18:51;;;;;;;14.60;3.70;;;11.00;99.90;;;;;;5071628;28;20527;-61
2022/10/12 06:21:17;;;;;;;28.43;3.80;;;10.90;99.90;;;;;;5072018;28;20180;-62
2022/10/12 06:23:42;;;;;;;17.57;4.13;;;11.00;99.90;;;;;;5068758;28;20172;-62
2022/10/12 06:26:08;;;;;;;18.20;3.93;;;11.00;99.90;;;;;;5071199;28;20264;-62
2022/10/12 06:28:33;;;;;;;16.77;4.83;;;11.00;99.90;;;;;;5065263;28;20177;-63
2022/10/12 06:30:59;;;;;;;18.47;3.93;;;11.00;99.90;;;;;;5061782;28;20693;-63
2022/10/12 06:33:26;;;;;;;22.40;4.10;;;11.10;99.90;;;;;;5062470;28;20223;-63
2022/10/12 06:35:53;;;;;;;20.10;4.57;;;11.00;99.90;;;;;;5059208;28;20177;-63
2022/10/12 06:38:19;;;;;;;18.10;4.77;;;11.00;99.90;;;;;;5068537;28;20187;-62
2022/10/12 06:40:44;;;;;;;16.40;5.03;;;11.00;99.90;;;;;;5064080;28;20169;-63
2022/10/12 06:43:10;;;;;;;12.63;3.90;;;11.00;99.90;;;;;;5069564;28;20176;-63
2022/10/12 06:45:36;;;;;;;18.80;4.50;;;10.90;99.90;;;;;;5063177;28;20177;-65
2022/10/12 06:48:02;;;;;;;21.90;4.40;;;;;;;;;;5070217;28;20177;-67
2022/10/12 06:50:28;;;;;;;17.33;4.43;;;;;;;;;;5052532;28;20173;-68
2022/10/12 06:52:54;;;;;;;18.80;5.20;;;11.00;99.90;;;;;;5050225;28;20173;-67
2022/10/12 06:55:20;;;;;;;20.13;4.63;;;11.00;99.90;;;;;;5071451;28;20547;-67
2022/10/12 06:57:45;;;;;;;22.20;4.63;;;11.00;99.90;;;;;;5071323;28;20639;-69
2022/10/12 07:00:12;;;;;;;30.83;5.10;;;11.10;99.90;;;;;;5071248;28;20237;-68
2022/10/12 07:02:38;;;;;;;17.90;4.63;;;11.10;99.90;;;;;;5071453;28;20180;-68
2022/10/12 07:05:04;;;;;;;18.00;4.30;;;11.10;99.90;;;;;;5069339;28;20260;-69
2022/10/12 07:07:31;;;;;;;32.23;4.80;;;11.30;99.90;;;;;;5071272;28;20230;-66
2022/10/12 07:09:56;;;;;;;25.73;4.60;;;11.30;99.90;;;;;;5070995;28;20168;-66
2022/10/12 07:12:22;;;;;;;15.53;3.83;;;11.30;99.90;;;;;;5071161;28;20579;-66
2022/10/12 07:14:48;;;;;;;21.17;4.80;;;11.50;99.90;;;;;;5069094;28;20216;-66
2022/10/12 07:17:13;;;;;;;19.70;4.87;;;11.40;99.90;;;;;;5070859;28;20177;-66
2022/10/12 07:19:39;;;;;;;16.80;4.50;;;11.70;99.90;;;;;;5070366;28;20172;-64
2022/10/12 07:22:04;;;;;;;17.63;4.50;;;11.80;99.90;;;;;;5071074;28;20173;-68
2022/10/12 07:24:34;;;;;;;19.23;5.07;;;11.80;99.90;;;;;;5068770;28;20537;-66
2022/10/12 07:27:04;;;;;;;20.80;4.10;;;11.90;99.90;;;;;;5070428;28;20177;-65
2022/10/12 07:29:31;;;;;;;14.70;3.57;;;12.00;99.90;;;;;;5069548;28;20180;-64
2022/10/12 07:31:57;;;;;;;14.20;3.83;;;12.10;99.90;;;;;;5070659;28;20184;-64
2022/10/12 07:34:24;;;;;;;16.07;3.97;;;12.20;99.90;;;;;;5070681;28;20215;-64
2022/10/12 07:36:50;;;;;;;21.00;3.87;;;12.30;99.90;;;;;;5069961;28;20655;-64
2022/10/12 07:39:15;;;;;;;22.50;4.37;;;12.50;99.90;;;;;;5070571;28;20278;-64
2022/10/12 07:41:41;;;;;;;20.30;3.87;;;12.60;99.90;;;;;;5069488;28;20543;-60
2022/10/12 07:44:07;;;;;;;12.47;3.43;;;12.60;99.90;;;;;;5069879;28;20180;-61
2022/10/12 07:46:33;;;;;;;19.87;4.00;;;12.70;99.90;;;;;;5069776;28;20230;-61
2022/10/12 07:48:58;;;;;;;24.57;3.67;;;12.70;99.90;;;;;;5069431;28;20176;-61
2022/10/12 07:51:24;;;;;;;16.77;3.50;;;12.80;99.90;;;;;;5060379;28;20651;-61
2022/10/12 07:53:50;;;;;;;22.10;4.17;;;13.00;99.90;;;;;;5066524;28;20211;-60
2022/10/12 07:56:16;;;;;;;20.90;3.47;;;13.10;99.90;;;;;;5070107;28;20169;-59
2022/10/12 07:58:53;;;;;;;13.17;3.10;;;13.10;99.90;;;;;;5070093;28;20160;-59
2022/10/12 08:01:20;;;;;;;13.57;3.35;;;13.20;99.90;;;;;;5069446;28;20204;-60
2022/10/12 08:03:46;;;;;;;13.70;3.20;;;13.30;99.90;;;;;;5069905;28;20665;-59
2022/10/12 08:06:14;;;;;;;17.17;3.93;;;13.50;99.90;;;;;;5069130;28;20647;-60
2022/10/12 08:08:40;;;;;;;14.27;3.30;;;13.50;99.90;;;;;;5069759;28;20231;-60
2022/10/12 08:11:07;;;;;;;19.08;3.47;;;13.60;99.90;;;;;;5068166;28;20172;-59
2022/10/12 08:13:33;;;;;;;21.50;4.13;;;13.70;99.90;;;;;;5069700;28;20192;-59
2022/10/12 08:16:00;;;;;;;8.52;2.88;;;13.60;99.90;;;;;;5069896;28;20247;-60
2022/10/12 08:18:26;;;;;;;16.95;2.88;;;13.70;99.90;;;;;;5069988;28;20195;-60
2022/10/12 08:20:52;;;;;;;16.92;3.70;;;13.70;99.90;;;;;;5069569;28;20172;-59
2022/10/12 08:23:18;;;;;;;11.68;2.97;;;13.70;99.90;;;;;;5069633;28;20663;-59
2022/10/12 08:25:59;;;;;;;11.07;2.30;;;13.70;99.90;;;;;;5069924;28;20176;-59
2022/10/12 08:28:25;;;;;;;16.88;3.17;;;13.70;99.90;;;;;;5069672;28;20243;-59
2022/10/12 08:30:51;;;;;;;13.95;3.25;;;13.80;99.90;;;;;;5069900;28;20204;-59
2022/10/12 08:33:17;;;;;;;16.92;3.03;;;13.90;99.90;;;;;;5073068;28;20636;-58
2022/10/12 08:35:44;;;;;;;14.35;3.05;;;14.20;99.90;;;;;;5089006;28;20183;-59
2022/10/12 08:38:10;;;;;;;12.13;2.78;;;14.00;99.90;;;;;;5073227;28;20230;-59
2022/10/12 08:41:04;;;;;;;14.75;3.15;;;14.10;99.90;;;;;;5073664;28;20165;-59
2022/10/12 08:43:39;;;;;;;15.13;2.38;;;14.20;99.90;;;;;;5052380;28;20204;-59
2022/10/12 08:46:05;;;;;;;8.10;2.45;;;14.30;99.90;;;;;;5073131;28;20182;-59
2022/10/12 08:48:34;;;;;;;15.80;2.42;;;14.40;99.90;;;;;;5072622;28;20566;-59
2022/10/12 08:51:03;;;;;;;15.82;2.90;;;14.40;99.90;;;;;;5073157;28;20173;-59
2022/10/12 08:53:37;;;;;;;14.95;3.00;;;14.50;99.90;;;;;;5072960;28;20204;-59
2022/10/12 08:56:03;;;;;;;10.98;2.30;;;14.60;99.90;;;;;;5073293;28;20254;-59
2022/10/12 08:58:32;;;;;;;11.35;2.60;;;14.80;99.90;;;;;;5070067;28;20256;-60
2022/10/12 09:01:37;;;;;;;12.82;2.30;;;14.80;99.90;;;;;;5063569;28;20185;-59
2022/10/12 09:04:21;;;;;;;13.77;2.45;;;14.90;99.90;;;;;;5065628;28;20528;-58
2022/10/12 09:06:54;;;;;;;12.38;2.65;;;15.30;99.90;;;;;;5064130;28;20644;-61
2022/10/12 09:09:33;;;;;;;15.15;2.58;;;15.30;99.90;;;;;;5060165;28;20177;-56
2022/10/12 09:12:18;;;;;;;16.77;2.88;;;15.60;99.90;;;;;;5065273;28;20198;-58
2022/10/12 09:14:45;;;;;;;15.90;2.67;;;15.50;99.90;;;;;;5062877;28;20687;-59
2022/10/12 09:17:28;;;;;;;15.98;2.42;;;15.70;99.90;;;;;;5057174;28;20200;-59
2022/10/12 09:20:19;;;;;;;14.05;2.28;;;15.60;99.90;;;;;;5073173;28;20210;-59
2022/10/12 09:22:49;;;;;;;10.05;2.00;;;15.70;99.90;;;;;;5071965;28;20176;-59
2022/10/12 09:25:23;;;;;;;15.13;2.03;;;15.60;99.90;;;;;;5068817;28;20173;-60
2022/10/12 09:27:49;;;;;;;10.52;2.22;;;15.70;99.90;;;;;;5052833;28;20172;-60
2022/10/12 09:30:17;;;;;;;9.93;2.17;;;15.90;99.90;;;;;;5053234;28;20177;-59
2022/10/12 09:33:10;;;;;;;12.52;2.78;;;15.80;99.90;;;;;;5060640;28;20172;-60
2022/10/12 09:35:36;;;;;;;11.52;2.25;;;15.90;99.90;;;;;;5072719;28;20527;-60
2022/10/12 09:38:02;;;;;;;10.00;2.20;;;16.10;99.90;;;;;;5072273;28;20650;-60
2022/10/12 09:40:31;;;;;;;11.48;2.35;;;16.00;99.90;;;;;;5071965;28;20179;-59
2022/10/12 09:43:00;;;;;;;13.98;2.00;;;15.80;99.90;;;;;;5070868;28;20280;-59
2022/10/12 09:45:28;;;;;;;8.90;1.90;;;15.70;99.90;;;;;;5072747;28;20173;-59
2022/10/12 09:48:09;;;;;;;11.43;2.58;;;15.80;99.90;;;;;;5072486;28;20180;-59
2022/10/12 09:50:47;;;;;;;18.10;2.88;;;16.10;99.90;;;;;;5070944;28;20172;-59
2022/10/12 09:53:18;;;;;;;18.25;2.65;;;16.10;99.90;;;;;;5066460;28;20255;-59
2022/10/12 09:55:56;;;;;;;10.48;2.10;;;16.30;99.90;;;;;;5072128;28;20256;-59
2022/10/12 09:58:24;;;;;;;10.68;1.95;;;16.30;99.90;;;;;;5057998;28;20177;-59
2022/10/12 10:01:15;;;;;;;14.40;2.67;;;16.60;99.90;;;;;;5070813;28;20203;-59
2022/10/12 10:03:41;;;;;;;11.27;2.22;;;17.10;99.90;;;;;;5059210;28;20173;-60
2022/10/12 10:06:07;;;;;;;12.88;2.35;;;17.00;99.90;;;;;;5050993;28;20169;-59
2022/10/12 10:08:42;;;;;;;15.50;2.20;;;17.00;99.90;;;;;;5056580;28;20181;-59
2022/10/12 10:11:19;;;;;;;10.02;2.28;;;17.10;99.90;;;;;;5066480;28;20203;-59
2022/10/12 10:13:50;;;;;;;12.38;2.08;;;17.00;99.90;;;;;;5071422;28;20699;-59
2022/10/12 10:16:18;;;;;;;13.23;2.58;;;16.90;99.90;;;;;;5072056;28;20625;-59
2022/10/12 10:18:47;;;;;;;11.80;2.30;;;17.10;99.90;;;;;;5066251;28;20211;-59
2022/10/12 10:21:29;;;;;;;11.18;2.75;;;17.20;99.90;;;;;;5057902;28;20181;-59
2022/10/12 10:24:00;;;;;;;5.65;1.65;;;17.10;99.90;;;;;;5054701;28;20267;-59
2022/10/12 10:26:28;;;;;;;8.45;1.98;;;17.00;99.90;;;;;;5056583;28;20632;-59
2022/10/12 10:29:23;;;;;;;12.23;2.38;;;16.90;99.90;;;;;;5060793;28;20187;-58
2022/10/12 10:32:11;;;;;;;15.05;2.70;;;17.20;99.90;;;;;;5065558;28;20176;-58
2022/10/12 10:34:39;;;;;;;13.38;2.42;;;17.50;99.90;;;;;;5063472;28;20220;-58
2022/10/12 10:37:05;;;;;;;9.70;2.30;;;17.70;99.90;;;;;;5062780;28;20180;-58
2022/10/12 10:39:45;;;;;;;10.15;2.03;;;17.90;99.90;;;;;;5063545;28;20169;-58
2022/10/12 10:42:29;;;;;;;14.65;2.35;;;18.00;99.90;;;;;;5056264;28;20184;-58
2022/10/12 10:45:01;;;;;;;12.73;2.15;;;19.10;99.90;;;;;;5059078;28;20184;-57
2022/10/12 10:47:28;;;;;;;11.98;2.15;;;18.60;99.90;;;;;;5067100;28;20180;-57
2022/10/12 10:49:58;;;;;;;13.43;1.98;;;18.60;99.90;;;;;;5070816;28;20171;-58
2022/10/12 10:52:30;;;;;;;10.52;2.78;;;18.90;99.90;;;;;;5070487;28;20173;-58
2022/10/12 10:55:19;;;;;;;16.50;2.60;;;19.70;99.90;;;;;;5070238;28;20208;-58
2022/10/12 10:58:02;;;;;;;10.85;2.28;;;19.60;99.90;;;;;;5071335;28;20176;-58
2022/10/12 11:00:31;;;;;;;10.95;2.50;;;19.00;99.90;;;;;;5070898;28;20287;-58
2022/10/12 11:03:03;;;;;;;15.25;2.70;;;18.80;99.90;;;;;;5070433;28;20678;-57
2022/10/12 11:05:32;;;;;;;12.32;2.83;;;19.00;99.90;;;;;;5067183;28;20176;-59
2022/10/12 11:08:02;;;;;;;10.00;2.60;;;19.30;99.90;;;;;;5071273;28;20211;-58
2022/10/12 11:10:30;;;;;;;12.57;2.20;;;19.20;99.90;;;;;;5071084;28;20176;-58
2022/10/12 11:13:05;;;;;;;6.43;1.75;;;18.40;99.90;;;;;;5071151;28;20173;-58
2022/10/12 11:15:41;;;;;;;8.45;2.50;;;18.20;99.90;;;;;;5069114;28;20231;-58
2022/10/12 11:18:43;;;;;;;14.93;3.00;;;18.30;99.90;;;;;;5070927;28;20168;-58
2022/10/12 11:21:17;;;;;;;11.27;2.38;;;17.90;99.90;;;;;;5065519;28;20188;-58
2022/10/12 11:23:50;;;;;;;13.20;2.63;;;18.20;99.90;;;;;;5052815;28;20173;-58
2022/10/12 11:26:22;;;;;;;12.07;2.67;;;19.30;99.90;;;;;;5057279;28;20535;-65
2022/10/12 11:28:48;;;;;;;10.02;2.70;;;20.40;99.90;;;;;;5061583;28;20633;-61
2022/10/12 11:31:24;;;;;;;12.43;2.13;;;22.90;99.90;;;;;;5070762;28;20176;-61
2022/10/12 11:33:50;;;;;;;15.65;4.00;;;23.20;99.90;;;;;;5069938;28;20211;-61
2022/10/12 11:36:23;;;;;;;10.30;2.53;;;23.90;99.90;;;;;;5069984;28;20165;-61
2022/10/12 11:39:00;;;;;;;8.98;2.50;;;23.70;99.90;;;;;;5069828;28;20217;-61
2022/10/12 11:41:31;;;;;;;9.70;2.40;;;23.00;99.90;;;;;;5069079;28;20641;-61
2022/10/12 11:44:03;;;;;;;9.88;2.03;;;20.00;99.90;;;;;;5068505;28;20568;-61
2022/10/12 11:47:03;;;;;;;10.18;1.80;;;20.20;99.90;;;;;;5066903;28;20663;-61
2022/10/12 11:49:35;;;;;;;11.15;1.95;;;20.10;99.90;;;;;;5045126;28;20181;-61
2022/10/12 11:52:08;;;;;;;7.47;1.90;;;19.90;99.90;;;;;;5051877;28;20169;-61
2022/10/12 11:54:40;;;;;;;10.93;2.15;;;19.10;99.90;;;;;;5070128;28;20207;-61
2022/10/12 11:57:12;;;;;;;11.55;2.10;;;19.40;99.90;;;;;;5069858;28;20225;-61
2022/10/12 11:59:43;;;;;;;10.63;2.22;;;20.20;99.90;;;;;;5068611;28;20592;-61
2022/10/12 12:02:32;;;;;;;13.07;2.30;;;20.70;99.90;;;;;;5056485;28;20176;-61
2022/10/12 12:04:58;;;;;;;10.30;2.05;;;21.00;99.90;;;;;;5072169;28;20259;-61
2022/10/12 12:07:47;;;;;;;10.45;1.90;;;20.70;99.90;;;;;;5073149;28;20173;-61
2022/10/12 12:10:30;;;;;;;9.75;2.05;;;20.30;99.90;;;;;;5072390;28;20181;-60
2022/10/12 12:13:16;;;;;;;9.38;1.20;;;18.60;99.90;;;;;;5073540;28;20168;-61
2022/10/12 12:15:46;;;;;;;7.35;1.73;;;18.40;99.90;;;;;;5073908;28;20232;-60
2022/10/12 12:18:16;;;;;;;12.90;2.20;;;18.20;99.90;;;;;;5072663;28;20176;-60
2022/10/12 12:20:45;;;;;;;12.88;2.13;;;18.10;99.90;;;;;;5065200;28;20651;-61
2022/10/12 12:23:38;;;;;;;11.88;1.77;;;18.30;99.90;;;;;;5067473;28;20594;-61
2022/10/12 12:26:08;;;;;;;14.27;2.40;;;18.60;99.90;;;;;;5050288;28;20266;-61
2022/10/12 12:28:35;;;;;;;10.02;1.90;;;18.60;99.90;;;;;;5062525;28;20168;-61
2022/10/12 12:31:12;;;;;;;8.05;1.45;;;18.90;99.90;;;;;;5072877;28;20176;-61
2022/10/12 12:33:41;;;;;;;17.63;2.92;;;19.60;99.90;;;;;;5069845;28;20299;-61
2022/10/12 12:36:11;;;;;;;9.10;1.88;;;19.70;99.90;;;;;;5064125;28;20179;-61
2022/10/12 12:38:42;;;;;;;13.00;1.80;;;20.70;99.90;;;;;;5073165;28;20635;-61
2022/10/12 12:41:12;;;;;;;7.80;1.27;;;20.90;99.90;;;;;;5073892;28;20185;-60
2022/10/12 12:43:44;;;;;;;10.02;1.85;;;21.20;99.90;;;;;;5073592;28;20176;-60
2022/10/12 12:46:12;;;;;;;12.65;1.80;;;21.20;99.90;;;;;;5073619;28;20196;-60
2022/10/12 12:48:37;;;;;;;7.15;2.00;;;21.50;99.90;;;;;;5073778;28;20207;-60
2022/10/12 12:51:11;;;;;;;8.02;1.55;;;21.90;99.90;;;;;;5066493;28;20687;-60
2022/10/12 12:54:19;;;;;;;9.43;1.98;;;21.70;99.90;;;;;;5053607;28;20208;-61
2022/10/12 12:56:50;;;;;;;12.13;1.77;;;20.70;99.90;;;;;;4992164;28;20183;-61